Time;durP1;ratioP1;P1;durP2;ratioP2;P2;SDS_P1;SDS_P2;PMS_P1;PMS_P2;Temp;Humidity;BMP_temperature;BMP_pressure;BME280_temperature;BME280_humidity;BME280_pressure;Samples;Min_cycle;Max_cycle;Signal;HPM_P1;HPM_P2
2024/01/22 00:01:49;;;;;;;;;;;;;;;;;;;;;
2024/01/22 00:08:27;;;;;;;0.98;0.38;;;9.80;99.90;;;;;;4734606;25;20216;-95
2024/01/22 00:15:10;;;;;;;1.02;0.70;;;9.80;99.90;;;;;;4699610;25;20255;-96
2024/01/22 00:18:09;;;;;;;;;;;;;;;;;;;;;
2024/01/22 00:24:39;;;;;;;;;;;;;;;;;;;;;
2024/01/22 00:27:57;;;;;;;;;;;;;;;;;;;;;
2024/01/22 00:30:25;;;;;;;0.95;0.90;;;10.00;99.90;;;;;;4912429;24;20177;-93
2024/01/22 00:36:59;;;;;;;0.75;0.45;;;10.00;99.90;;;;;;4890504;24;20306;-96
2024/01/22 00:40:20;;;;;;;2.25;0.57;;;10.10;99.90;;;;;;4853244;24;20746;-94
2024/01/22 00:43:40;;;;;;;2.05;0.65;;;10.20;99.90;;;;;;4909354;24;20170;-94
2024/01/22 01:05:05;;;;;;;0.95;0.60;;;10.60;99.90;;;;;;4867672;24;20182;-96
2024/01/22 01:37:02;;;;;;;1.40;0.50;;;10.70;99.90;;;;;;5060302;23;20678;-95
2024/01/22 01:40:17;;;;;;;0.52;0.40;;;10.80;99.90;;;;;;4937424;24;20249;-94
2024/01/22 01:43:28;;;;;;;0.63;0.40;;;10.90;99.90;;;;;;4956643;24;20168;-95
2024/01/22 01:52:16;;;;;;;1.00;0.20;;;11.10;99.90;;;;;;4842661;24;20239;-96
2024/01/22 01:55:36;;;;;;;1.08;0.40;;;11.20;99.90;;;;;;4936828;24;20176;-96
2024/01/22 02:02:04;;;;;;;;;;;;;;;;;;;;;
2024/01/22 02:21:54;;;;;;;0.52;0.30;;;11.20;99.90;;;;;;5048987;23;20236;-95
2024/01/22 02:27:16;;;;;;;0.15;0.10;;;11.10;99.90;;;;;;5051245;23;20177;-96
2024/01/22 02:33:46;;;;;;;0.20;0.20;;;11.20;99.90;;;;;;5017015;23;20185;-94
2024/01/22 02:40:41;;;;;;;0.90;0.55;;;11.10;99.90;;;;;;4969939;23;20171;-95
2024/01/22 02:43:14;;;;;;;;;;;;;;;;;;;;;
2024/01/22 02:46:06;;;;;;;;;;;;;;;;;;;;;
2024/01/22 02:48:35;;;;;;;0.57;0.30;;;10.90;99.90;;;;;;5067493;23;20550;-95
2024/01/22 03:23:18;;;;;;;;;;;;;;;;;;;;;
2024/01/22 04:22:53;;;;;;;;;;;;;;;;;;;;;
2024/01/22 04:33:11;;;;;;;0.17;0.08;;;11.70;99.90;;;;;;5087795;23;20208;-94
2024/01/22 04:35:15;;;;;;;2.47;0.40;;;11.70;99.90;;;;;;5039745;23;20166;-91
2024/01/22 04:37:24;;;;;;;2.35;0.20;;;11.70;99.90;;;;;;5062870;23;20510;-94
2024/01/22 04:39:28;;;;;;;0.00;0.00;;;11.60;99.90;;;;;;5062834;23;20143;-93
2024/01/22 04:41:31;;;;;;;0.38;0.10;;;11.40;99.90;;;;;;5062539;23;20150;-95
2024/01/22 04:43:32;;;;;;;0.20;0.10;;;11.40;99.90;;;;;;5063640;23;20153;-94
2024/01/22 04:45:34;;;;;;;0.10;0.10;;;11.40;99.90;;;;;;5062921;23;20154;-93
2024/01/22 04:47:35;;;;;;;0.03;0.03;;;11.30;99.90;;;;;;5065691;23;20159;-93
2024/01/22 04:49:35;;;;;;;1.30;0.30;;;11.30;99.90;;;;;;5038636;23;20151;-92
2024/01/22 04:51:45;;;;;;;0.45;0.38;;;11.30;99.90;;;;;;5061999;23;20154;-96
2024/01/22 04:53:50;;;;;;;2.63;0.13;;;11.40;99.90;;;;;;5037654;23;20205;-93
2024/01/22 04:56:11;;;;;;;0.57;0.32;;;11.50;99.90;;;;;;5061567;23;20177;-95
2024/01/22 04:58:11;;;;;;;0.52;0.03;;;11.60;99.90;;;;;;5060689;23;20426;-95
2024/01/22 05:00:24;;;;;;;0.95;0.13;;;11.60;99.90;;;;;;5039855;23;20202;-94
2024/01/22 05:02:28;;;;;;;0.40;0.10;;;11.60;99.90;;;;;;5064084;23;20272;-91
2024/01/22 05:04:38;;;;;;;0.50;0.20;;;11.60;99.90;;;;;;5065637;23;20404;-93
2024/01/22 05:06:45;;;;;;;0.40;0.15;;;11.50;99.90;;;;;;5064197;23;20181;-93
2024/01/22 05:08:51;;;;;;;4.38;0.32;;;11.30;99.90;;;;;;5066054;23;20171;-94
2024/01/22 05:11:09;;;;;;;0.65;0.22;;;11.20;99.90;;;;;;5041972;23;20179;-94
2024/01/22 05:13:10;;;;;;;0.32;0.20;;;11.10;99.90;;;;;;5040609;23;20215;-94
2024/01/22 05:15:14;;;;;;;1.23;0.20;;;11.10;99.90;;;;;;5063321;23;20154;-94
2024/01/22 05:17:36;;;;;;;0.13;0.13;;;11.10;99.90;;;;;;5066664;23;20149;-94
2024/01/22 05:19:36;;;;;;;0.93;0.20;;;11.10;99.90;;;;;;5041072;23;20151;-94
2024/01/22 05:21:41;;;;;;;0.40;0.32;;;11.00;99.90;;;;;;5036029;23;20215;-96
2024/01/22 05:23:44;;;;;;;0.50;0.20;;;11.00;99.90;;;;;;5063828;23;20154;-94
2024/01/22 05:25:46;;;;;;;0.22;0.10;;;11.10;99.90;;;;;;5064599;23;20206;-96
2024/01/22 05:27:50;;;;;;;1.15;0.47;;;11.20;99.90;;;;;;5042975;23;20606;-96
2024/01/22 05:30:01;;;;;;;1.17;0.32;;;11.10;99.90;;;;;;5042193;23;20163;-96
2024/01/22 05:32:04;;;;;;;3.38;0.52;;;11.00;99.90;;;;;;5049633;23;20205;-95
2024/01/22 05:34:07;;;;;;;1.50;0.57;;;11.00;99.90;;;;;;5063478;23;20189;-96
2024/01/22 05:36:09;;;;;;;5.68;0.30;;;10.90;99.90;;;;;;5058294;23;20233;-95
2024/01/22 05:38:16;;;;;;;0.57;0.35;;;11.00;99.90;;;;;;5112121;23;20159;-95
2024/01/22 05:40:36;;;;;;;2.17;0.50;;;11.00;99.90;;;;;;5069934;23;20153;-95
2024/01/22 05:42:40;;;;;;;0.38;0.20;;;11.00;99.90;;;;;;5087119;23;20150;-95
2024/01/22 05:44:42;;;;;;;0.40;0.40;;;11.10;99.90;;;;;;5063274;23;20218;-94
2024/01/22 05:46:44;;;;;;;1.90;0.28;;;11.10;99.90;;;;;;5110856;23;20169;-95
2024/01/22 05:48:45;;;;;;;0.13;0.13;;;11.10;99.90;;;;;;5059095;23;20177;-95
2024/01/22 05:50:46;;;;;;;0.30;0.20;;;11.20;99.90;;;;;;5059383;23;20157;-94
2024/01/22 05:52:47;;;;;;;0.40;0.20;;;11.20;99.90;;;;;;5063240;23;20189;-94
2024/01/22 05:54:49;;;;;;;0.65;0.40;;;11.20;99.90;;;;;;5086886;23;20161;-94
2024/01/22 05:56:51;;;;;;;0.80;0.35;;;11.20;99.90;;;;;;5083908;23;20644;-94
2024/01/22 05:59:03;;;;;;;1.02;0.32;;;11.30;99.90;;;;;;5063471;23;20166;-95
2024/01/22 06:01:04;;;;;;;0.80;0.32;;;11.30;99.90;;;;;;5061804;23;20150;-94
2024/01/22 06:03:20;;;;;;;0.22;0.15;;;11.30;99.90;;;;;;5062849;23;20230;-94
2024/01/22 06:05:21;;;;;;;0.10;0.10;;;11.40;99.90;;;;;;5063924;23;20166;-94
2024/01/22 06:07:28;;;;;;;0.13;0.00;;;11.40;99.90;;;;;;5085472;23;20201;-93
2024/01/22 06:09:29;;;;;;;0.28;0.20;;;11.50;99.90;;;;;;5057424;23;20154;-93
2024/01/22 06:11:30;;;;;;;1.10;0.30;;;11.50;99.90;;;;;;5058568;23;20151;-92
2024/01/22 06:13:31;;;;;;;2.38;0.55;;;11.50;99.90;;;;;;5058953;23;20213;-92
2024/01/22 06:15:32;;;;;;;0.00;0.00;;;11.60;99.90;;;;;;5059629;23;20158;-92
2024/01/22 06:17:38;;;;;;;6.70;0.75;;;11.70;99.90;;;;;;5059701;23;20201;-93
2024/01/22 06:19:42;;;;;;;0.98;0.35;;;11.60;99.90;;;;;;5059778;23;20194;-95
2024/01/22 06:22:18;;;;;;;1.75;0.10;;;11.60;99.90;;;;;;5082329;23;20176;-95
2024/01/22 06:27:14;;;;;;;5.30;1.00;;;11.50;99.90;;;;;;5105272;23;20718;-94
2024/01/22 06:29:30;;;;;;;1.75;0.50;;;11.60;99.90;;;;;;5057098;23;20150;-94
2024/01/22 06:31:37;;;;;;;4.90;0.73;;;11.60;99.90;;;;;;5078712;23;20160;-95
2024/01/22 06:33:46;;;;;;;5.55;0.52;;;11.60;99.90;;;;;;5058028;23;20246;-96
2024/01/22 06:35:47;;;;;;;0.10;0.10;;;11.60;99.90;;;;;;5055970;23;20177;-96
2024/01/22 06:37:48;;;;;;;2.72;0.55;;;11.60;99.90;;;;;;5083180;23;20160;-94
2024/01/22 06:39:49;;;;;;;6.43;0.85;;;11.50;99.90;;;;;;5058179;23;20150;-94
2024/01/22 06:41:50;;;;;;;3.70;1.15;;;11.60;99.90;;;;;;5054523;23;20154;-93
2024/01/22 06:43:54;;;;;;;6.75;0.32;;;11.60;99.90;;;;;;5058367;23;20155;-92
2024/01/22 06:45:54;;;;;;;4.88;0.52;;;11.60;99.90;;;;;;5079632;23;20199;-94
2024/01/22 06:47:55;;;;;;;5.53;1.33;;;11.60;99.90;;;;;;5081762;23;20168;-93
2024/01/22 06:50:01;;;;;;;3.83;0.77;;;11.70;99.90;;;;;;5057283;23;20158;-95
2024/01/22 06:52:12;;;;;;;8.15;1.13;;;11.70;99.90;;;;;;5079877;23;20173;-94
2024/01/22 06:54:12;;;;;;;3.65;0.63;;;11.70;99.90;;;;;;5054758;23;20193;-94
2024/01/22 06:56:16;;;;;;;4.32;0.80;;;11.70;99.90;;;;;;5052391;23;20178;-94
2024/01/22 06:58:17;;;;;;;3.15;0.85;;;11.70;99.90;;;;;;5050233;23;20162;-89
2024/01/22 07:00:19;;;;;;;1.17;0.50;;;11.70;99.90;;;;;;5045948;23;20182;-96
2024/01/22 07:02:20;;;;;;;0.28;0.13;;;11.60;99.90;;;;;;5047621;23;20152;-95
2024/01/22 07:04:20;;;;;;;5.63;0.45;;;11.60;99.90;;;;;;5070899;23;20157;-95
2024/01/22 07:06:21;;;;;;;0.80;0.40;;;11.60;99.90;;;;;;5070364;23;20166;-89
2024/01/22 07:08:22;;;;;;;2.63;0.22;;;11.50;99.90;;;;;;5046239;23;20249;-89
2024/01/22 07:10:23;;;;;;;1.67;0.98;;;11.50;99.90;;;;;;5045429;23;20150;-89
2024/01/22 07:12:24;;;;;;;3.33;0.98;;;11.40;99.90;;;;;;5048145;23;20226;-90
2024/01/22 07:14:26;;;;;;;1.15;0.63;;;11.40;99.90;;;;;;5071622;23;20624;-90
2024/01/22 07:16:27;;;;;;;0.75;0.45;;;11.40;99.90;;;;;;5049713;23;20178;-90
2024/01/22 07:18:28;;;;;;;1.13;0.30;;;11.40;99.90;;;;;;5050154;23;20150;-94
2024/01/22 07:20:28;;;;;;;3.55;0.43;;;11.40;99.90;;;;;;5049702;23;20154;-94
2024/01/22 07:22:29;;;;;;;2.47;0.70;;;11.40;99.90;;;;;;5049023;23;20138;-89
2024/01/22 07:24:31;;;;;;;0.00;0.00;;;11.40;99.90;;;;;;5048462;23;20186;-94
2024/01/22 07:26:32;;;;;;;2.95;0.38;;;11.40;99.90;;;;;;5047972;23;20246;-94
2024/01/22 07:28:33;;;;;;;0.00;0.00;;;11.40;99.90;;;;;;5046898;23;20169;-90
2024/01/22 07:30:36;;;;;;;0.38;0.38;;;11.30;99.90;;;;;;5045561;23;20218;-89
2024/01/22 07:32:38;;;;;;;0.10;0.10;;;11.30;99.90;;;;;;5031165;23;20194;-88
2024/01/22 07:34:39;;;;;;;0.10;0.10;;;11.30;99.90;;;;;;5046060;23;20157;-93
2024/01/22 07:36:39;;;;;;;0.15;0.15;;;11.20;99.90;;;;;;5022283;23;20638;-89
2024/01/22 07:38:40;;;;;;;0.52;0.32;;;11.20;99.90;;;;;;5045104;23;20213;-89
2024/01/22 07:40:42;;;;;;;3.25;0.30;;;11.30;99.90;;;;;;5020758;23;20219;-91
2024/01/22 07:42:43;;;;;;;0.35;0.25;;;11.30;99.90;;;;;;5021114;23;20590;-89
2024/01/22 07:44:44;;;;;;;0.10;0.10;;;11.30;99.90;;;;;;5022996;23;20153;-93
2024/01/22 07:46:45;;;;;;;2.75;0.20;;;11.20;99.90;;;;;;5046518;23;20478;-96
2024/01/22 07:48:46;;;;;;;3.20;0.40;;;11.20;99.90;;;;;;5022243;23;20162;-89
2024/01/22 07:50:47;;;;;;;2.10;0.85;;;11.30;99.90;;;;;;5047557;23;20167;-89
2024/01/22 07:52:48;;;;;;;4.22;0.28;;;11.30;99.90;;;;;;5022825;23;20245;-95
2024/01/22 07:54:48;;;;;;;1.45;0.40;;;11.30;99.90;;;;;;5046420;23;20210;-89
2024/01/22 07:56:49;;;;;;;0.32;0.20;;;11.40;99.90;;;;;;5022804;23;20191;-90
2024/01/22 07:58:50;;;;;;;2.03;0.60;;;11.40;99.90;;;;;;5046267;23;20233;-89
2024/01/22 08:00:51;;;;;;;1.98;0.35;;;11.40;99.90;;;;;;5023397;23;20155;-90
2024/01/22 08:02:52;;;;;;;0.17;0.10;;;11.40;99.90;;;;;;5047894;23;20190;-96
2024/01/22 08:04:52;;;;;;;0.28;0.28;;;11.40;99.90;;;;;;5024026;23;20255;-96
2024/01/22 08:06:53;;;;;;;1.45;0.50;;;11.30;99.90;;;;;;5046740;23;20499;-96
2024/01/22 08:08:54;;;;;;;1.63;0.20;;;11.40;99.90;;;;;;5024237;23;20155;-89
2024/01/22 08:10:55;;;;;;;1.80;0.20;;;11.30;99.90;;;;;;5048379;23;20146;-95
2024/01/22 08:12:56;;;;;;;0.55;0.32;;;11.20;99.90;;;;;;5024440;23;20241;-94
2024/01/22 08:14:57;;;;;;;0.03;0.03;;;11.20;99.90;;;;;;5047775;23;20571;-88
2024/01/22 08:16:58;;;;;;;2.00;0.17;;;11.10;99.90;;;;;;5022658;23;20652;-89
2024/01/22 08:18:59;;;;;;;8.32;0.95;;;11.00;99.90;;;;;;5047736;23;20206;-96
2024/01/22 08:21:02;;;;;;;5.03;1.60;;;11.10;99.90;;;;;;5047332;23;20557;-95
2024/01/22 08:23:03;;;;;;;2.28;0.80;;;11.10;99.90;;;;;;5023680;23;20542;-95
2024/01/22 08:25:04;;;;;;;5.45;0.70;;;11.10;99.90;;;;;;5023952;23;20155;-95
2024/01/22 08:27:05;;;;;;;1.30;0.63;;;11.20;99.90;;;;;;5047332;23;20585;-89
2024/01/22 08:29:07;;;;;;;1.00;0.68;;;11.10;99.90;;;;;;5047551;23;20162;-94
2024/01/22 08:31:07;;;;;;;4.15;1.15;;;11.00;99.90;;;;;;5024909;23;20178;-90
2024/01/22 08:33:08;;;;;;;0.43;0.30;;;11.10;99.90;;;;;;5024359;23;20187;-90
2024/01/22 08:35:09;;;;;;;3.58;0.80;;;11.20;99.90;;;;;;5025791;23;20155;-89
2024/01/22 08:37:10;;;;;;;3.42;0.85;;;11.20;99.90;;;;;;5023226;23;20555;-90
2024/01/22 08:39:11;;;;;;;2.17;0.30;;;11.10;99.90;;;;;;5024986;23;20151;-93
2024/01/22 08:41:12;;;;;;;1.55;0.73;;;11.20;99.90;;;;;;5025296;23;20582;-89
2024/01/22 08:43:12;;;;;;;5.75;0.68;;;11.20;99.90;;;;;;5024666;23;20511;-90
2024/01/22 08:45:13;;;;;;;1.42;0.52;;;11.20;99.90;;;;;;5024468;23;20234;-93
2024/01/22 08:47:14;;;;;;;0.22;0.20;;;11.20;99.90;;;;;;5023649;23;20175;-89
2024/01/22 08:49:15;;;;;;;2.67;0.22;;;11.30;99.90;;;;;;5023455;23;20154;-89
2024/01/22 08:51:16;;;;;;;3.03;0.25;;;11.30;99.90;;;;;;5022485;23;20485;-96
2024/01/22 08:53:18;;;;;;;7.78;0.70;;;11.30;99.90;;;;;;5046817;23;20253;-89
2024/01/22 08:55:22;;;;;;;6.57;0.38;;;11.30;99.90;;;;;;5023776;23;20155;-89
2024/01/22 08:57:23;;;;;;;2.00;0.52;;;11.30;99.90;;;;;;5024312;23;20291;-89
2024/01/22 08:59:24;;;;;;;12.73;1.30;;;11.40;99.90;;;;;;5046528;23;20154;-89
2024/01/22 09:01:25;;;;;;;0.98;0.55;;;11.40;99.90;;;;;;5023449;23;20207;-90
2024/01/22 09:03:26;;;;;;;2.10;0.85;;;11.30;99.90;;;;;;5022814;23;20195;-89
2024/01/22 09:05:26;;;;;;;7.15;0.73;;;11.40;99.90;;;;;;5046175;23;20238;-91
2024/01/22 09:07:27;;;;;;;5.55;0.65;;;11.40;99.90;;;;;;5022525;23;20155;-90
2024/01/22 09:09:28;;;;;;;8.73;0.93;;;11.50;99.90;;;;;;5045758;23;20151;-89
2024/01/22 09:11:29;;;;;;;3.08;0.40;;;11.60;99.90;;;;;;5023867;23;20147;-89
2024/01/22 09:13:29;;;;;;;4.20;0.70;;;11.60;99.90;;;;;;5045978;23;20194;-89
2024/01/22 09:15:30;;;;;;;2.67;0.98;;;11.50;99.90;;;;;;5047074;23;20177;-93
2024/01/22 09:17:31;;;;;;;4.18;1.17;;;11.50;99.90;;;;;;5045711;23;20158;-92
2024/01/22 09:19:32;;;;;;;2.45;0.50;;;11.50;99.90;;;;;;5023233;23;20203;-94
2024/01/22 09:21:33;;;;;;;6.43;0.82;;;11.50;99.90;;;;;;5023428;23;20155;-94
2024/01/22 09:23:33;;;;;;;6.78;0.95;;;11.50;99.90;;;;;;5024128;23;20151;-89
2024/01/22 09:25:34;;;;;;;7.20;0.73;;;11.50;99.90;;;;;;5022706;23;20155;-89
2024/01/22 09:27:35;;;;;;;4.88;1.10;;;11.50;99.90;;;;;;5022611;23;20661;-90
2024/01/22 09:29:36;;;;;;;3.92;0.95;;;11.40;99.90;;;;;;5023532;23;20154;-89
2024/01/22 09:31:37;;;;;;;0.95;0.22;;;11.40;99.90;;;;;;5026821;23;20166;-90
2024/01/22 09:33:38;;;;;;;1.25;0.63;;;11.40;99.90;;;;;;5046708;23;20253;-90
2024/01/22 09:35:40;;;;;;;2.50;0.68;;;11.40;99.90;;;;;;5047104;23;20169;-95
2024/01/22 09:37:41;;;;;;;2.65;0.93;;;11.40;99.90;;;;;;5075397;23;20165;-89
2024/01/22 09:39:44;;;;;;;8.30;2.67;;;11.40;99.90;;;;;;5047832;23;20161;-90
2024/01/22 09:41:45;;;;;;;5.85;1.35;;;11.30;99.90;;;;;;5049956;23;20169;-90
2024/01/22 09:43:47;;;;;;;6.25;2.53;;;11.30;99.90;;;;;;5051865;23;20138;-90
2024/01/22 09:45:49;;;;;;;13.27;3.90;;;11.40;99.90;;;;;;5049324;23;20178;-91
2024/01/22 09:47:50;;;;;;;3.65;2.15;;;11.30;99.90;;;;;;5053612;23;20162;-89
2024/01/22 09:49:51;;;;;;;7.63;2.88;;;11.30;99.90;;;;;;5052750;23;20589;-91
2024/01/22 09:51:52;;;;;;;6.32;1.33;;;11.30;99.90;;;;;;5049167;23;20158;-92
2024/01/22 09:53:59;;;;;;;8.70;1.13;;;11.30;99.90;;;;;;5072040;23;20333;-90
2024/01/22 09:56:00;;;;;;;4.25;0.80;;;11.30;99.90;;;;;;5050700;23;20561;-96
2024/01/22 09:58:03;;;;;;;4.40;1.08;;;11.30;99.90;;;;;;5049840;23;20166;-91
2024/01/22 10:00:05;;;;;;;5.63;1.38;;;11.30;99.90;;;;;;5051796;23;20513;-90
2024/01/22 10:02:26;;;;;;;8.60;1.33;;;11.30;99.90;;;;;;5022824;23;20167;-91
2024/01/22 10:04:27;;;;;;;5.03;1.27;;;11.40;99.90;;;;;;4999425;23;20159;-91
2024/01/22 10:06:29;;;;;;;2.20;0.45;;;11.40;99.90;;;;;;4980736;23;20160;-91
2024/01/22 10:08:30;;;;;;;2.92;0.70;;;11.40;99.90;;;;;;4978460;23;20204;-90
2024/01/22 10:10:31;;;;;;;3.58;0.75;;;11.30;99.90;;;;;;4979284;23;20156;-95
2024/01/22 10:13:03;;;;;;;10.82;1.00;;;11.40;99.90;;;;;;4979323;23;20520;-96
2024/01/22 10:15:13;;;;;;;15.88;1.15;;;11.30;99.90;;;;;;5004340;23;20821;-90
2024/01/22 10:17:18;;;;;;;9.23;1.25;;;11.40;99.90;;;;;;5001455;23;20515;-90
2024/01/22 10:19:25;;;;;;;6.25;1.92;;;11.40;99.90;;;;;;4999905;23;20155;-91
2024/01/22 10:21:27;;;;;;;13.70;1.90;;;11.50;99.90;;;;;;4998765;23;20164;-90
2024/01/22 10:23:27;;;;;;;11.88;0.98;;;11.50;99.90;;;;;;4974537;23;20164;-90
2024/01/22 10:25:32;;;;;;;10.77;1.92;;;11.60;99.90;;;;;;4997831;23;20235;-95
2024/01/22 10:27:33;;;;;;;11.02;1.10;;;11.50;99.90;;;;;;4976233;23;20228;-95
2024/01/22 10:29:34;;;;;;;6.32;1.38;;;11.50;99.90;;;;;;4975099;23;20160;-89
2024/01/22 10:31:55;;;;;;;12.75;1.88;;;11.60;99.90;;;;;;4970856;23;20175;-89
2024/01/22 10:34:04;;;;;;;13.40;1.50;;;11.60;99.90;;;;;;4999587;23;20201;-92
2024/01/22 10:36:17;;;;;;;9.23;1.48;;;11.60;99.90;;;;;;5046384;23;20238;-90
2024/01/22 10:38:19;;;;;;;9.85;1.58;;;11.50;99.90;;;;;;5022044;23;20587;-89
2024/01/22 10:40:29;;;;;;;8.82;1.30;;;11.50;99.90;;;;;;5022347;23;20159;-91
2024/01/22 10:42:30;;;;;;;19.75;2.88;;;11.40;99.90;;;;;;5024338;23;20155;-90
2024/01/22 10:44:32;;;;;;;15.95;2.40;;;11.50;99.90;;;;;;5023803;23;20179;-90
2024/01/22 10:46:35;;;;;;;14.18;1.60;;;11.50;99.90;;;;;;5044958;23;20892;-93
2024/01/22 10:48:36;;;;;;;6.45;0.77;;;11.40;99.90;;;;;;5021384;23;20178;-91
2024/01/22 10:50:40;;;;;;;9.70;2.30;;;11.40;99.90;;;;;;5020919;23;20147;-89
2024/01/22 10:52:42;;;;;;;11.35;2.35;;;11.50;99.90;;;;;;5022549;23;20162;-90
2024/01/22 10:54:43;;;;;;;16.83;2.05;;;11.50;99.90;;;;;;5045873;23;20197;-91
2024/01/22 10:56:50;;;;;;;13.07;2.28;;;11.50;99.90;;;;;;5046530;23;20170;-91
2024/01/22 10:58:53;;;;;;;11.10;2.58;;;11.60;99.90;;;;;;5022127;23;20207;-90
2024/01/22 11:01:01;;;;;;;14.32;3.95;;;11.60;99.90;;;;;;5021469;23;20184;-93
2024/01/22 11:03:02;;;;;;;13.77;2.35;;;11.60;99.90;;;;;;5022201;23;20206;-96
2024/01/22 11:05:14;;;;;;;16.98;4.40;;;11.60;99.90;;;;;;5022705;23;20241;-88
2024/01/22 11:07:17;;;;;;;17.98;2.05;;;11.50;99.90;;;;;;5020790;23;20310;-90
2024/01/22 11:09:18;;;;;;;9.57;1.70;;;11.50;99.90;;;;;;5020599;23;20158;-95
2024/01/22 11:11:20;;;;;;;3.30;1.55;;;11.40;99.90;;;;;;5021019;23;20629;-90
2024/01/22 11:13:21;;;;;;;2.75;1.38;;;11.40;99.90;;;;;;5043808;23;20205;-89
2024/01/22 11:15:23;;;;;;;5.60;2.10;;;11.30;99.90;;;;;;5021117;23;20151;-94
2024/01/22 11:17:25;;;;;;;9.77;2.85;;;11.20;99.90;;;;;;5020556;23;20162;-89
2024/01/22 11:19:26;;;;;;;14.30;1.98;;;11.20;99.90;;;;;;5045070;23;20586;-89
2024/01/22 11:21:34;;;;;;;28.02;3.42;;;11.10;99.90;;;;;;5020939;23;20637;-89
2024/01/22 11:23:35;;;;;;;11.38;3.85;;;11.10;99.90;;;;;;5021052;23;20150;-89
2024/01/22 11:25:36;;;;;;;15.75;2.40;;;11.10;99.90;;;;;;5020977;23;20201;-89
2024/01/22 11:27:38;;;;;;;10.60;4.15;;;11.10;99.90;;;;;;5021158;23;20154;-95
2024/01/22 11:29:39;;;;;;;13.80;5.82;;;11.20;99.90;;;;;;5020635;23;20161;-89
2024/01/22 11:31:40;;;;;;;8.70;1.80;;;11.30;99.90;;;;;;5025183;23;20170;-93
2024/01/22 11:33:50;;;;;;;18.45;1.95;;;11.30;99.90;;;;;;5068404;23;20185;-89
2024/01/22 11:35:51;;;;;;;11.02;2.28;;;11.40;99.90;;;;;;5045201;23;20173;-89
2024/01/22 11:37:52;;;;;;;13.05;2.00;;;11.40;99.90;;;;;;5046367;23;20165;-90
2024/01/22 11:39:53;;;;;;;19.05;2.35;;;11.50;99.90;;;;;;5070540;23;20157;-89
2024/01/22 11:41:53;;;;;;;3.72;0.85;;;11.60;99.90;;;;;;5070978;23;20149;-94
2024/01/22 11:43:54;;;;;;;14.77;1.30;;;11.50;99.90;;;;;;5045855;23;20158;-93
2024/01/22 11:45:56;;;;;;;9.38;1.42;;;11.50;99.90;;;;;;5069905;23;20500;-94
2024/01/22 11:47:57;;;;;;;5.38;1.27;;;11.50;99.90;;;;;;5046360;23;20245;-89
2024/01/22 11:50:04;;;;;;;14.30;1.40;;;11.50;99.90;;;;;;5045744;23;20158;-88
2024/01/22 11:52:18;;;;;;;18.90;2.30;;;11.50;99.90;;;;;;5046747;23;20210;-90
2024/01/22 11:54:19;;;;;;;9.77;2.28;;;11.60;99.90;;;;;;5072372;23;20690;-95
2024/01/22 11:56:21;;;;;;;7.28;1.50;;;11.60;99.90;;;;;;5049170;23;20170;-95
2024/01/22 11:58:22;;;;;;;9.75;1.92;;;11.80;99.90;;;;;;5046524;23;20158;-91
2024/01/22 12:00:24;;;;;;;12.80;4.47;;;11.90;99.90;;;;;;5048867;23;20585;-93
2024/01/22 12:02:25;;;;;;;16.15;3.28;;;11.90;99.90;;;;;;5049254;23;20161;-95
2024/01/22 12:04:26;;;;;;;20.45;3.40;;;12.10;99.90;;;;;;5048340;23;20154;-94
2024/01/22 12:06:27;;;;;;;12.02;2.40;;;12.10;99.90;;;;;;5070374;23;20166;-91
2024/01/22 12:08:29;;;;;;;9.82;1.83;;;12.10;99.90;;;;;;5046953;23;20619;-90
2024/01/22 12:10:30;;;;;;;12.38;1.48;;;12.10;99.90;;;;;;5070026;23;20146;-92
2024/01/22 12:12:31;;;;;;;11.68;1.65;;;12.20;99.90;;;;;;5046906;23;20162;-93
2024/01/22 12:14:32;;;;;;;16.95;2.22;;;12.10;99.90;;;;;;5073985;23;20189;-92
2024/01/22 12:16:33;;;;;;;7.28;1.85;;;12.00;99.90;;;;;;5046266;23;20257;-95
2024/01/22 12:18:33;;;;;;;11.00;2.30;;;11.90;99.90;;;;;;5045733;23;20159;-95
2024/01/22 12:20:34;;;;;;;26.05;2.97;;;12.00;99.90;;;;;;5046053;23;20981;-93
2024/01/22 12:22:35;;;;;;;6.55;2.50;;;12.10;99.90;;;;;;5045765;23;20158;-90
2024/01/22 12:24:36;;;;;;;16.58;3.10;;;12.10;99.90;;;;;;5045729;23;20162;-92
2024/01/22 12:26:40;;;;;;;21.55;3.88;;;12.10;99.90;;;;;;5045771;23;20257;-94
2024/01/22 12:28:40;;;;;;;23.85;2.30;;;12.20;99.90;;;;;;5046004;23;20178;-95
2024/01/22 12:30:42;;;;;;;5.55;2.45;;;12.30;99.90;;;;;;5046085;23;20197;-90
2024/01/22 12:32:53;;;;;;;11.43;3.33;;;12.20;99.90;;;;;;5045817;23;20173;-90
2024/01/22 12:35:00;;;;;;;1.38;0.80;;;12.10;99.90;;;;;;5046104;23;20282;-94
2024/01/22 12:37:20;;;;;;;11.50;1.40;;;12.00;99.90;;;;;;5069740;23;20174;-91
2024/01/22 12:39:20;;;;;;;5.70;1.30;;;11.90;99.90;;;;;;5069844;23;20158;-89
2024/01/22 12:41:23;;;;;;;8.30;2.53;;;11.60;99.90;;;;;;5045495;23;20176;-94
2024/01/22 12:43:25;;;;;;;7.93;1.10;;;11.50;99.90;;;;;;5022358;23;20158;-94
2024/01/22 12:45:26;;;;;;;13.88;2.70;;;11.60;99.90;;;;;;5045982;23;20177;-96
2024/01/22 12:47:28;;;;;;;10.77;0.82;;;11.50;99.90;;;;;;5023279;23;20154;-90
2024/01/22 12:49:29;;;;;;;14.70;0.98;;;11.40;99.90;;;;;;5022291;23;20159;-96
2024/01/22 12:51:30;;;;;;;7.72;1.67;;;11.40;99.90;;;;;;5046959;23;20222;-94
2024/01/22 12:53:30;;;;;;;6.80;1.75;;;11.50;99.90;;;;;;5022751;23;20261;-88
2024/01/22 12:55:31;;;;;;;15.82;2.15;;;11.70;99.90;;;;;;5022366;23;20288;-91
2024/01/22 12:57:32;;;;;;;7.07;2.25;;;11.90;99.90;;;;;;5046408;23;20151;-91
2024/01/22 12:59:33;;;;;;;7.85;1.58;;;11.90;99.90;;;;;;5024636;23;20555;-90
2024/01/22 13:01:34;;;;;;;9.90;2.15;;;11.90;99.90;;;;;;5022856;23;20233;-90
2024/01/22 13:03:36;;;;;;;2.10;0.60;;;11.90;99.90;;;;;;5021762;23;20287;-90
2024/01/22 13:05:37;;;;;;;9.30;1.65;;;11.90;99.90;;;;;;5023818;23;20237;-90
2024/01/22 13:07:38;;;;;;;9.20;1.70;;;12.10;99.90;;;;;;5072013;23;20146;-89
2024/01/22 13:09:40;;;;;;;13.68;1.67;;;12.30;99.90;;;;;;5021559;23;20155;-90
2024/01/22 13:11:42;;;;;;;6.18;1.10;;;12.30;99.90;;;;;;5022565;23;20150;-89
2024/01/22 13:13:43;;;;;;;6.93;1.05;;;12.20;99.90;;;;;;5045775;23;20250;-89
2024/01/22 13:15:46;;;;;;;17.10;2.38;;;12.20;99.90;;;;;;5046287;23;20230;-90
2024/01/22 13:17:47;;;;;;;1.90;1.00;;;12.20;99.90;;;;;;5024419;23;20163;-91
2024/01/22 13:19:48;;;;;;;6.65;1.33;;;12.30;99.90;;;;;;5023035;23;20226;-91
2024/01/22 13:21:48;;;;;;;4.00;0.65;;;12.10;99.90;;;;;;5045715;23;20154;-91
2024/01/22 13:23:49;;;;;;;14.40;1.35;;;11.90;99.90;;;;;;5045675;23;20154;-91
2024/01/22 13:25:50;;;;;;;10.23;1.42;;;12.10;99.90;;;;;;5023559;23;20175;-95
2024/01/22 13:27:53;;;;;;;15.40;1.50;;;12.30;99.90;;;;;;5046899;23;20154;-96
2024/01/22 13:29:54;;;;;;;17.27;1.95;;;12.30;99.90;;;;;;5025293;23;20515;-94
2024/01/22 13:31:55;;;;;;;19.13;1.75;;;12.30;99.90;;;;;;5036824;23;20146;-91
2024/01/22 13:33:57;;;;;;;11.85;1.45;;;12.20;99.90;;;;;;5028708;23;20190;-89
2024/01/22 13:35:58;;;;;;;20.50;2.20;;;12.00;99.90;;;;;;5022935;23;21266;-96
2024/01/22 13:37:59;;;;;;;9.15;1.55;;;11.90;99.90;;;;;;5021901;23;20245;-89
2024/01/22 13:40:00;;;;;;;8.40;1.98;;;11.90;99.90;;;;;;5021628;23;20155;-93
2024/01/22 13:42:01;;;;;;;10.05;1.95;;;11.90;99.90;;;;;;5046609;23;20154;-94
2024/01/22 13:44:05;;;;;;;3.17;1.05;;;11.80;99.90;;;;;;5023288;23;20151;-93
2024/01/22 13:46:07;;;;;;;9.65;0.90;;;11.80;99.90;;;;;;5021802;23;20178;-93
2024/01/22 13:48:08;;;;;;;7.05;1.60;;;11.80;99.90;;;;;;5023358;23;20218;-93
2024/01/22 13:50:09;;;;;;;13.32;1.10;;;11.80;99.90;;;;;;5051533;23;20165;-96
2024/01/22 13:52:10;;;;;;;12.23;2.33;;;11.80;99.90;;;;;;5025263;23;20151;-93
2024/01/22 13:54:11;;;;;;;6.30;1.00;;;11.80;99.90;;;;;;5022266;23;20234;-94
2024/01/22 13:56:13;;;;;;;10.85;1.38;;;11.80;99.90;;;;;;5021726;23;20171;-95
2024/01/22 13:58:14;;;;;;;7.78;1.33;;;12.00;99.90;;;;;;5045590;23;20236;-95
2024/01/22 14:00:15;;;;;;;9.18;2.60;;;11.90;99.90;;;;;;5047280;23;20154;-89
2024/01/22 14:02:16;;;;;;;16.20;1.95;;;11.90;99.90;;;;;;5022074;23;20167;-91
2024/01/22 14:04:17;;;;;;;4.70;1.70;;;11.90;99.90;;;;;;5022446;23;20163;-89
2024/01/22 14:06:17;;;;;;;14.55;1.83;;;12.00;99.90;;;;;;5047228;23;20170;-93
2024/01/22 14:08:20;;;;;;;14.20;1.95;;;12.10;99.90;;;;;;5020591;23;20155;-90
2024/01/22 14:10:20;;;;;;;6.32;1.52;;;12.30;99.90;;;;;;5044897;23;20193;-92
2024/01/22 14:12:21;;;;;;;15.10;1.58;;;12.30;99.90;;;;;;5021619;23;20633;-93
2024/01/22 14:14:22;;;;;;;11.85;2.85;;;12.10;99.90;;;;;;5044747;23;20186;-90
2024/01/22 14:16:23;;;;;;;8.57;1.55;;;11.80;99.90;;;;;;5020508;23;20234;-92
2024/01/22 14:18:26;;;;;;;18.73;3.55;;;11.90;99.90;;;;;;5021221;23;20234;-90
2024/01/22 14:20:27;;;;;;;18.50;3.80;;;11.80;99.90;;;;;;5021434;23;20154;-90
2024/01/22 14:22:28;;;;;;;15.00;6.13;;;11.80;99.90;;;;;;5044730;23;20154;-90
2024/01/22 14:24:29;;;;;;;7.90;1.98;;;11.80;99.90;;;;;;5020516;23;20186;-96
2024/01/22 14:26:31;;;;;;;13.00;2.45;;;11.60;99.90;;;;;;5021275;23;20167;-90
2024/01/22 14:28:32;;;;;;;4.57;1.92;;;11.60;99.90;;;;;;5045608;23;20494;-94